sensor_id;sensor_type;location;lat;lon;timestamp;temperature;humidity
48208;DHT22;33997;53.278;9.708;2023-03-23T00:01:48;9.60;98.60
48208;DHT22;33997;53.278;9.708;2023-03-23T00:04:17;9.60;98.80
48208;DHT22;33997;53.278;9.708;2023-03-23T00:06:43;9.60;98.90
48208;DHT22;33997;53.278;9.708;2023-03-23T00:09:11;9.60;99.00
48208;DHT22;33997;53.278;9.708;2023-03-23T00:11:37;9.60;99.10
48208;DHT22;33997;53.278;9.708;2023-03-23T00:14:04;9.60;99.20
48208;DHT22;33997;53.278;9.708;2023-03-23T00:16:32;9.60;99.20
48208;DHT22;33997;53.278;9.708;2023-03-23T00:19:03;9.60;99.30
48208;DHT22;33997;53.278;9.708;2023-03-23T00:21:32;9.60;99.30
48208;DHT22;33997;53.278;9.708;2023-03-23T00:24:24;9.60;99.40
48208;DHT22;33997;53.278;9.708;2023-03-23T00:26:50;9.60;99.50
48208;DHT22;33997;53.278;9.708;2023-03-23T00:29:20;9.60;99.60
48208;DHT22;33997;53.278;9.708;2023-03-23T00:31:49;9.60;99.70
48208;DHT22;33997;53.278;9.708;2023-03-23T00:34:20;9.50;99.70
48208;DHT22;33997;53.278;9.708;2023-03-23T00:36:48;9.60;99.80
48208;DHT22;33997;53.278;9.708;2023-03-23T00:39:15;9.60;99.80
48208;DHT22;33997;53.278;9.708;2023-03-23T00:41:42;9.50;99.80
48208;DHT22;33997;53.278;9.708;2023-03-23T00:44:08;9.50;99.90
48208;DHT22;33997;53.278;9.708;2023-03-23T00:46:34;9.50;99.90
48208;DHT22;33997;53.278;9.708;2023-03-23T00:48:59;9.50;99.90
48208;DHT22;33997;53.278;9.708;2023-03-23T00:51:25;9.50;99.90
48208;DHT22;33997;53.278;9.708;2023-03-23T00:53:51;9.50;99.90
48208;DHT22;33997;53.278;9.708;2023-03-23T00:56:17;9.50;99.90
48208;DHT22;33997;53.278;9.708;2023-03-23T00:58:42;9.50;99.90
48208;DHT22;33997;53.278;9.708;2023-03-23T01:01:08;9.50;99.90
48208;DHT22;33997;53.278;9.708;2023-03-23T01:03:34;9.50;99.90
48208;DHT22;33997;53.278;9.708;2023-03-23T01:06:10;9.50;99.90
48208;DHT22;33997;53.278;9.708;2023-03-23T01:08:39;9.50;99.90
48208;DHT22;33997;53.278;9.708;2023-03-23T01:11:11;9.50;99.90
48208;DHT22;33997;53.278;9.708;2023-03-23T01:13:37;9.50;99.90
48208;DHT22;33997;53.278;9.708;2023-03-23T01:16:02;9.50;99.90
48208;DHT22;33997;53.278;9.708;2023-03-23T01:18:28;9.50;99.90
48208;DHT22;33997;53.278;9.708;2023-03-23T01:20:53;9.50;99.90
48208;DHT22;33997;53.278;9.708;2023-03-23T01:23:19;9.50;99.90
48208;DHT22;33997;53.278;9.708;2023-03-23T01:25:44;9.50;99.90
48208;DHT22;33997;53.278;9.708;2023-03-23T01:28:10;9.50;99.90
48208;DHT22;33997;53.278;9.708;2023-03-23T01:30:36;9.50;99.90
48208;DHT22;33997;53.278;9.708;2023-03-23T01:33:02;9.50;99.90
48208;DHT22;33997;53.278;9.708;2023-03-23T01:35:28;9.60;99.90
48208;DHT22;33997;53.278;9.708;2023-03-23T01:37:54;9.50;99.90
48208;DHT22;33997;53.278;9.708;2023-03-23T01:40:19;9.60;99.90
48208;DHT22;33997;53.278;9.708;2023-03-23T01:42:45;9.60;99.90
48208;DHT22;33997;53.278;9.708;2023-03-23T01:50:36;9.60;99.90
48208;DHT22;33997;53.278;9.708;2023-03-23T01:53:05;9.60;99.90
48208;DHT22;33997;53.278;9.708;2023-03-23T01:55:33;9.60;99.90
48208;DHT22;33997;53.278;9.708;2023-03-23T01:58:02;9.60;99.90
48208;DHT22;33997;53.278;9.708;2023-03-23T02:00:27;9.70;99.90
48208;DHT22;33997;53.278;9.708;2023-03-23T02:02:54;9.70;99.90
48208;DHT22;33997;53.278;9.708;2023-03-23T02:05:30;9.80;99.90
48208;DHT22;33997;53.278;9.708;2023-03-23T02:07:59;9.80;99.90
48208;DHT22;33997;53.278;9.708;2023-03-23T02:10:29;9.80;99.90
48208;DHT22;33997;53.278;9.708;2023-03-23T02:12:54;9.80;99.90
48208;DHT22;33997;53.278;9.708;2023-03-23T02:15:20;9.80;99.90
48208;DHT22;33997;53.278;9.708;2023-03-23T02:17:57;9.80;99.90
48208;DHT22;33997;53.278;9.708;2023-03-23T02:23:22;9.90;99.90
48208;DHT22;33997;53.278;9.708;2023-03-23T02:26:01;9.80;99.90
48208;DHT22;33997;53.278;9.708;2023-03-23T02:28:48;9.90;99.90
48208;DHT22;33997;53.278;9.708;2023-03-23T02:34:22;9.90;99.90
48208;DHT22;33997;53.278;9.708;2023-03-23T02:36:56;9.80;99.90
48208;DHT22;33997;53.278;9.708;2023-03-23T02:39:26;9.90;99.90
48208;DHT22;33997;53.278;9.708;2023-03-23T02:42:02;9.90;99.90
48208;DHT22;33997;53.278;9.708;2023-03-23T02:44:31;9.80;99.90
48208;DHT22;33997;53.278;9.708;2023-03-23T02:46:59;9.90;99.90
48208;DHT22;33997;53.278;9.708;2023-03-23T02:49:27;9.90;99.90
48208;DHT22;33997;53.278;9.708;2023-03-23T02:51:55;9.80;99.90
48208;DHT22;33997;53.278;9.708;2023-03-23T02:54:22;9.90;99.90
48208;DHT22;33997;53.278;9.708;2023-03-23T02:56:50;9.80;99.90
48208;DHT22;33997;53.278;9.708;2023-03-23T02:59:16;9.90;99.90
48208;DHT22;33997;53.278;9.708;2023-03-23T03:04:14;9.90;99.90
48208;DHT22;33997;53.278;9.708;2023-03-23T03:07:23;9.80;99.90
48208;DHT22;33997;53.278;9.708;2023-03-23T03:09:57;9.80;99.90
48208;DHT22;33997;53.278;9.708;2023-03-23T03:12:36;9.90;99.90
48208;DHT22;33997;53.278;9.708;2023-03-23T03:17:52;9.90;99.90
48208;DHT22;33997;53.278;9.708;2023-03-23T03:20:18;9.80;99.90
48208;DHT22;33997;53.278;9.708;2023-03-23T03:22:45;9.80;99.90
48208;DHT22;33997;53.278;9.708;2023-03-23T03:25:12;9.90;99.90
48208;DHT22;33997;53.278;9.708;2023-03-23T03:27:41;9.80;99.90
48208;DHT22;33997;53.278;9.708;2023-03-23T03:30:12;9.80;99.90
48208;DHT22;33997;53.278;9.708;2023-03-23T03:32:44;9.80;99.90
48208;DHT22;33997;53.278;9.708;2023-03-23T03:35:12;9.80;99.90
48208;DHT22;33997;53.278;9.708;2023-03-23T03:37:38;9.80;99.90
48208;DHT22;33997;53.278;9.708;2023-03-23T03:40:08;9.80;99.90
48208;DHT22;33997;53.278;9.708;2023-03-23T03:42:41;9.80;99.90
48208;DHT22;33997;53.278;9.708;2023-03-23T03:45:13;9.80;99.90
48208;DHT22;33997;53.278;9.708;2023-03-23T03:47:39;9.80;99.90
48208;DHT22;33997;53.278;9.708;2023-03-23T03:50:05;9.80;99.90
48208;DHT22;33997;53.278;9.708;2023-03-23T03:52:32;9.80;99.90
48208;DHT22;33997;53.278;9.708;2023-03-23T03:54:57;9.80;99.90
48208;DHT22;33997;53.278;9.708;2023-03-23T03:57:24;9.80;99.90
48208;DHT22;33997;53.278;9.708;2023-03-23T03:59:50;9.90;99.90
48208;DHT22;33997;53.278;9.708;2023-03-23T04:02:16;9.90;99.90
48208;DHT22;33997;53.278;9.708;2023-03-23T04:04:48;9.80;99.90
48208;DHT22;33997;53.278;9.708;2023-03-23T04:07:15;9.80;99.90
48208;DHT22;33997;53.278;9.708;2023-03-23T04:09:45;9.90;99.90
48208;DHT22;33997;53.278;9.708;2023-03-23T04:12:12;9.90;99.90
48208;DHT22;33997;53.278;9.708;2023-03-23T04:14:37;9.80;99.90
48208;DHT22;33997;53.278;9.708;2023-03-23T04:17:03;9.80;99.90
48208;DHT22;33997;53.278;9.708;2023-03-23T04:19:29;9.80;99.90
48208;DHT22;33997;53.278;9.708;2023-03-23T04:21:58;9.80;99.90
48208;DHT22;33997;53.278;9.708;2023-03-23T04:24:24;9.80;99.90
48208;DHT22;33997;53.278;9.708;2023-03-23T04:26:50;9.80;99.90
48208;DHT22;33997;53.278;9.708;2023-03-23T04:29:19;9.80;99.90
48208;DHT22;33997;53.278;9.708;2023-03-23T04:31:45;9.80;99.90
48208;DHT22;33997;53.278;9.708;2023-03-23T04:34:11;9.80;99.90
48208;DHT22;33997;53.278;9.708;2023-03-23T04:36:40;9.80;99.90
48208;DHT22;33997;53.278;9.708;2023-03-23T04:39:06;9.80;99.90
48208;DHT22;33997;53.278;9.708;2023-03-23T04:41:37;9.80;99.90
48208;DHT22;33997;53.278;9.708;2023-03-23T04:44:04;9.80;99.90
48208;DHT22;33997;53.278;9.708;2023-03-23T04:46:30;9.80;99.90
48208;DHT22;33997;53.278;9.708;2023-03-23T04:48:57;9.80;99.90
48208;DHT22;33997;53.278;9.708;2023-03-23T04:51:24;9.80;99.90
48208;DHT22;33997;53.278;9.708;2023-03-23T04:53:51;9.80;99.90
48208;DHT22;33997;53.278;9.708;2023-03-23T04:56:17;9.80;99.90
48208;DHT22;33997;53.278;9.708;2023-03-23T04:58:44;9.80;99.80
48208;DHT22;33997;53.278;9.708;2023-03-23T05:01:10;9.70;99.80
48208;DHT22;33997;53.278;9.708;2023-03-23T05:03:39;9.70;99.70
48208;DHT22;33997;53.278;9.708;2023-03-23T05:06:05;9.70;99.80
48208;DHT22;33997;53.278;9.708;2023-03-23T05:08:31;9.70;99.80
48208;DHT22;33997;53.278;9.708;2023-03-23T05:10:59;9.80;99.70
48208;DHT22;33997;53.278;9.708;2023-03-23T05:13:24;9.80;99.60
48208;DHT22;33997;53.278;9.708;2023-03-23T05:15:50;9.80;99.60
48208;DHT22;33997;53.278;9.708;2023-03-23T05:18:16;9.90;99.50
48208;DHT22;33997;53.278;9.708;2023-03-23T05:20:42;9.80;99.40
48208;DHT22;33997;53.278;9.708;2023-03-23T05:23:09;9.80;99.50
48208;DHT22;33997;53.278;9.708;2023-03-23T05:25:35;9.70;99.40
48208;DHT22;33997;53.278;9.708;2023-03-23T05:28:09;9.80;99.50
48208;DHT22;33997;53.278;9.708;2023-03-23T05:30:36;9.70;99.40
48208;DHT22;33997;53.278;9.708;2023-03-23T05:33:02;9.70;99.40
48208;DHT22;33997;53.278;9.708;2023-03-23T05:35:28;9.80;99.40
48208;DHT22;33997;53.278;9.708;2023-03-23T05:37:54;9.90;99.30
48208;DHT22;33997;53.278;9.708;2023-03-23T05:40:21;9.90;99.00
48208;DHT22;33997;53.278;9.708;2023-03-23T05:42:47;9.80;99.10
48208;DHT22;33997;53.278;9.708;2023-03-23T05:45:13;9.90;99.20
48208;DHT22;33997;53.278;9.708;2023-03-23T05:47:39;9.80;99.10
48208;DHT22;33997;53.278;9.708;2023-03-23T05:50:07;9.80;99.10
48208;DHT22;33997;53.278;9.708;2023-03-23T05:52:34;9.80;99.00
48208;DHT22;33997;53.278;9.708;2023-03-23T05:55:01;9.90;98.90
48208;DHT22;33997;53.278;9.708;2023-03-23T05:57:28;9.90;98.70
48208;DHT22;33997;53.278;9.708;2023-03-23T05:59:54;9.90;98.50
48208;DHT22;33997;53.278;9.708;2023-03-23T06:02:19;9.90;98.50
48208;DHT22;33997;53.278;9.708;2023-03-23T06:04:45;9.90;98.60
48208;DHT22;33997;53.278;9.708;2023-03-23T06:07:10;9.90;98.50
48208;DHT22;33997;53.278;9.708;2023-03-23T06:09:39;9.90;98.40
48208;DHT22;33997;53.278;9.708;2023-03-23T06:12:06;9.90;98.40
48208;DHT22;33997;53.278;9.708;2023-03-23T06:14:32;10.00;98.20
48208;DHT22;33997;53.278;9.708;2023-03-23T06:16:57;10.00;98.00
48208;DHT22;33997;53.278;9.708;2023-03-23T06:19:23;10.00;97.80
48208;DHT22;33997;53.278;9.708;2023-03-23T06:21:48;10.10;97.40
48208;DHT22;33997;53.278;9.708;2023-03-23T06:24:14;10.10;97.20
48208;DHT22;33997;53.278;9.708;2023-03-23T06:26:40;10.10;97.10
48208;DHT22;33997;53.278;9.708;2023-03-23T06:29:09;10.10;96.80
48208;DHT22;33997;53.278;9.708;2023-03-23T06:31:46;10.20;96.30
48208;DHT22;33997;53.278;9.708;2023-03-23T06:34:12;10.10;96.10
48208;DHT22;33997;53.278;9.708;2023-03-23T06:36:38;10.10;96.10
48208;DHT22;33997;53.278;9.708;2023-03-23T06:39:04;10.20;95.90
48208;DHT22;33997;53.278;9.708;2023-03-23T06:41:33;10.10;96.20
48208;DHT22;33997;53.278;9.708;2023-03-23T06:43:59;10.10;96.30
48208;DHT22;33997;53.278;9.708;2023-03-23T06:46:26;10.20;96.00
48208;DHT22;33997;53.278;9.708;2023-03-23T06:48:51;10.30;96.20
48208;DHT22;33997;53.278;9.708;2023-03-23T06:51:17;10.40;95.20
48208;DHT22;33997;53.278;9.708;2023-03-23T06:53:43;10.40;95.30
48208;DHT22;33997;53.278;9.708;2023-03-23T06:56:09;10.40;95.20
48208;DHT22;33997;53.278;9.708;2023-03-23T06:58:35;10.50;94.90
48208;DHT22;33997;53.278;9.708;2023-03-23T07:01:01;10.60;94.80
48208;DHT22;33997;53.278;9.708;2023-03-23T07:03:27;10.60;94.60
48208;DHT22;33997;53.278;9.708;2023-03-23T07:05:53;10.70;94.80
48208;DHT22;33997;53.278;9.708;2023-03-23T07:08:19;10.70;94.40
48208;DHT22;33997;53.278;9.708;2023-03-23T07:10:45;10.90;94.20
48208;DHT22;33997;53.278;9.708;2023-03-23T07:13:10;10.90;93.80
48208;DHT22;33997;53.278;9.708;2023-03-23T07:15:36;10.90;94.00
48208;DHT22;33997;53.278;9.708;2023-03-23T07:18:02;11.00;93.60
48208;DHT22;33997;53.278;9.708;2023-03-23T07:20:27;11.00;93.60
48208;DHT22;33997;53.278;9.708;2023-03-23T07:22:54;11.00;93.60
48208;DHT22;33997;53.278;9.708;2023-03-23T07:25:19;11.00;94.20
48208;DHT22;33997;53.278;9.708;2023-03-23T07:27:45;11.00;93.90
48208;DHT22;33997;53.278;9.708;2023-03-23T07:30:11;11.00;93.50
48208;DHT22;33997;53.278;9.708;2023-03-23T07:32:37;11.00;94.00
48208;DHT22;33997;53.278;9.708;2023-03-23T07:35:03;11.00;93.80
48208;DHT22;33997;53.278;9.708;2023-03-23T07:37:29;11.10;93.70
48208;DHT22;33997;53.278;9.708;2023-03-23T07:39:55;11.10;93.70
48208;DHT22;33997;53.278;9.708;2023-03-23T07:42:20;11.30;93.50
48208;DHT22;33997;53.278;9.708;2023-03-23T07:44:46;11.30;93.60
48208;DHT22;33997;53.278;9.708;2023-03-23T07:47:11;11.40;93.50
48208;DHT22;33997;53.278;9.708;2023-03-23T07:49:37;11.40;93.10
48208;DHT22;33997;53.278;9.708;2023-03-23T07:52:03;11.50;93.30
48208;DHT22;33997;53.278;9.708;2023-03-23T07:54:28;11.70;93.30
48208;DHT22;33997;53.278;9.708;2023-03-23T07:56:54;11.90;92.50
48208;DHT22;33997;53.278;9.708;2023-03-23T07:59:19;11.80;91.60
48208;DHT22;33997;53.278;9.708;2023-03-23T08:01:45;12.00;91.90
48208;DHT22;33997;53.278;9.708;2023-03-23T08:04:11;11.90;91.80
48208;DHT22;33997;53.278;9.708;2023-03-23T08:06:38;11.90;92.30
48208;DHT22;33997;53.278;9.708;2023-03-23T08:09:05;11.70;92.20
48208;DHT22;33997;53.278;9.708;2023-03-23T08:11:34;11.70;92.30
48208;DHT22;33997;53.278;9.708;2023-03-23T08:13:59;11.60;92.30
48208;DHT22;33997;53.278;9.708;2023-03-23T08:16:25;11.60;92.90
48208;DHT22;33997;53.278;9.708;2023-03-23T08:18:51;11.60;92.70
48208;DHT22;33997;53.278;9.708;2023-03-23T08:21:17;11.60;92.70
48208;DHT22;33997;53.278;9.708;2023-03-23T08:23:42;11.50;93.80
48208;DHT22;33997;53.278;9.708;2023-03-23T08:26:09;11.40;94.30
48208;DHT22;33997;53.278;9.708;2023-03-23T08:28:36;11.30;95.10
48208;DHT22;33997;53.278;9.708;2023-03-23T08:31:09;11.10;95.90
48208;DHT22;33997;53.278;9.708;2023-03-23T08:33:35;10.90;95.50
48208;DHT22;33997;53.278;9.708;2023-03-23T08:36:02;10.50;93.30
48208;DHT22;33997;53.278;9.708;2023-03-23T08:38:28;10.40;93.40
48208;DHT22;33997;53.278;9.708;2023-03-23T08:40:58;10.30;93.10
48208;DHT22;33997;53.278;9.708;2023-03-23T08:43:24;10.20;93.60
48208;DHT22;33997;53.278;9.708;2023-03-23T08:45:50;10.10;93.90
48208;DHT22;33997;53.278;9.708;2023-03-23T08:48:19;10.10;94.10
48208;DHT22;33997;53.278;9.708;2023-03-23T08:50:44;10.10;94.40
48208;DHT22;33997;53.278;9.708;2023-03-23T08:53:10;10.10;94.90
48208;DHT22;33997;53.278;9.708;2023-03-23T08:55:37;10.10;95.20
48208;DHT22;33997;53.278;9.708;2023-03-23T08:58:02;10.10;95.30
48208;DHT22;33997;53.278;9.708;2023-03-23T09:00:30;10.10;95.50
48208;DHT22;33997;53.278;9.708;2023-03-23T09:02:56;10.20;95.60
48208;DHT22;33997;53.278;9.708;2023-03-23T09:05:23;10.30;95.60
48208;DHT22;33997;53.278;9.708;2023-03-23T09:07:51;10.30;95.50
48208;DHT22;33997;53.278;9.708;2023-03-23T09:10:17;10.40;95.50
48208;DHT22;33997;53.278;9.708;2023-03-23T09:12:44;10.50;95.20
48208;DHT22;33997;53.278;9.708;2023-03-23T09:15:13;10.60;94.00
48208;DHT22;33997;53.278;9.708;2023-03-23T09:17:41;10.60;94.20
48208;DHT22;33997;53.278;9.708;2023-03-23T09:20:08;10.60;94.90
48208;DHT22;33997;53.278;9.708;2023-03-23T09:22:39;10.50;94.90
48208;DHT22;33997;53.278;9.708;2023-03-23T09:25:06;10.60;95.30
48208;DHT22;33997;53.278;9.708;2023-03-23T09:27:32;10.60;95.10
48208;DHT22;33997;53.278;9.708;2023-03-23T09:29:58;10.50;94.80
48208;DHT22;33997;53.278;9.708;2023-03-23T09:32:24;10.50;94.70
48208;DHT22;33997;53.278;9.708;2023-03-23T09:34:49;10.50;95.20
48208;DHT22;33997;53.278;9.708;2023-03-23T09:37:16;10.60;95.30
48208;DHT22;33997;53.278;9.708;2023-03-23T09:39:42;10.80;94.90
48208;DHT22;33997;53.278;9.708;2023-03-23T09:47:36;11.10;94.00
48208;DHT22;33997;53.278;9.708;2023-03-23T09:50:10;11.10;93.90
48208;DHT22;33997;53.278;9.708;2023-03-23T09:52:53;11.10;94.20
48208;DHT22;33997;53.278;9.708;2023-03-23T09:55:20;11.10;93.70
48208;DHT22;33997;53.278;9.708;2023-03-23T09:58:03;11.00;93.50
48208;DHT22;33997;53.278;9.708;2023-03-23T10:00:34;11.10;94.10
48208;DHT22;33997;53.278;9.708;2023-03-23T10:03:19;11.00;94.40
48208;DHT22;33997;53.278;9.708;2023-03-23T10:05:47;10.90;94.00
48208;DHT22;33997;53.278;9.708;2023-03-23T10:08:16;10.90;94.00
48208;DHT22;33997;53.278;9.708;2023-03-23T10:10:45;11.00;94.20
48208;DHT22;33997;53.278;9.708;2023-03-23T10:13:22;11.00;93.90
48208;DHT22;33997;53.278;9.708;2023-03-23T10:15:50;11.00;94.00
48208;DHT22;33997;53.278;9.708;2023-03-23T10:18:18;11.00;93.60
48208;DHT22;33997;53.278;9.708;2023-03-23T10:20:49;11.10;93.70
48208;DHT22;33997;53.278;9.708;2023-03-23T10:28:59;11.30;93.60
48208;DHT22;33997;53.278;9.708;2023-03-23T10:31:34;11.20;93.60
48208;DHT22;33997;53.278;9.708;2023-03-23T10:34:13;11.30;93.70
48208;DHT22;33997;53.278;9.708;2023-03-23T10:36:55;11.30;93.30
48208;DHT22;33997;53.278;9.708;2023-03-23T10:39:22;11.30;93.40
48208;DHT22;33997;53.278;9.708;2023-03-23T10:41:49;11.30;93.80
48208;DHT22;33997;53.278;9.708;2023-03-23T10:44:20;11.40;93.50
48208;DHT22;33997;53.278;9.708;2023-03-23T10:47:04;11.40;93.90
48208;DHT22;33997;53.278;9.708;2023-03-23T10:49:35;11.40;93.50
48208;DHT22;33997;53.278;9.708;2023-03-23T10:54:49;11.60;94.10
48208;DHT22;33997;53.278;9.708;2023-03-23T10:57:25;11.60;93.30
48208;DHT22;33997;53.278;9.708;2023-03-23T10:59:59;11.60;93.30
48208;DHT22;33997;53.278;9.708;2023-03-23T11:02:25;11.50;93.20
48208;DHT22;33997;53.278;9.708;2023-03-23T11:04:57;11.50;92.70
48208;DHT22;33997;53.278;9.708;2023-03-23T11:07:28;11.40;92.80
48208;DHT22;33997;53.278;9.708;2023-03-23T11:09:57;11.30;92.80
48208;DHT22;33997;53.278;9.708;2023-03-23T11:12:23;11.40;93.10
48208;DHT22;33997;53.278;9.708;2023-03-23T11:14:49;11.60;92.40
48208;DHT22;33997;53.278;9.708;2023-03-23T11:17:25;11.60;91.90
48208;DHT22;33997;53.278;9.708;2023-03-23T11:19:52;11.70;91.50
48208;DHT22;33997;53.278;9.708;2023-03-23T11:22:26;11.50;91.00
48208;DHT22;33997;53.278;9.708;2023-03-23T11:24:54;11.30;91.20
48208;DHT22;33997;53.278;9.708;2023-03-23T11:27:21;11.30;91.30
48208;DHT22;33997;53.278;9.708;2023-03-23T11:30:00;11.40;91.30
48208;DHT22;33997;53.278;9.708;2023-03-23T11:32:28;11.50;91.50
48208;DHT22;33997;53.278;9.708;2023-03-23T11:34:59;11.70;91.10
48208;DHT22;33997;53.278;9.708;2023-03-23T11:37:42;11.80;90.90
48208;DHT22;33997;53.278;9.708;2023-03-23T11:45:39;11.50;91.60
48208;DHT22;33997;53.278;9.708;2023-03-23T11:48:26;11.60;92.00
48208;DHT22;33997;53.278;9.708;2023-03-23T11:51:08;11.70;91.30
48208;DHT22;33997;53.278;9.708;2023-03-23T11:56:34;12.00;90.40
48208;DHT22;33997;53.278;9.708;2023-03-23T11:59:00;11.80;90.50
48208;DHT22;33997;53.278;9.708;2023-03-23T12:01:47;11.70;90.70
48208;DHT22;33997;53.278;9.708;2023-03-23T12:09:43;11.80;91.10
48208;DHT22;33997;53.278;9.708;2023-03-23T12:15:38;11.70;91.10
48208;DHT22;33997;53.278;9.708;2023-03-23T12:21:16;11.80;91.40
48208;DHT22;33997;53.278;9.708;2023-03-23T12:23:57;11.80;91.80
48208;DHT22;33997;53.278;9.708;2023-03-23T12:26:32;12.00;92.40
48208;DHT22;33997;53.278;9.708;2023-03-23T12:37:26;12.10;90.50
48208;DHT22;33997;53.278;9.708;2023-03-23T12:48:08;12.30;90.10
48208;DHT22;33997;53.278;9.708;2023-03-23T12:50:44;12.80;88.90
48208;DHT22;33997;53.278;9.708;2023-03-23T12:53:29;12.80;88.40
48208;DHT22;33997;53.278;9.708;2023-03-23T12:56:17;12.90;87.50
48208;DHT22;33997;53.278;9.708;2023-03-23T12:58:50;13.10;87.10
48208;DHT22;33997;53.278;9.708;2023-03-23T13:01:27;13.10;87.30
48208;DHT22;33997;53.278;9.708;2023-03-23T13:03:58;13.30;88.00
48208;DHT22;33997;53.278;9.708;2023-03-23T13:06:41;13.20;86.60
48208;DHT22;33997;53.278;9.708;2023-03-23T13:11:40;12.90;87.30
48208;DHT22;33997;53.278;9.708;2023-03-23T13:17:47;12.80;87.30
48208;DHT22;33997;53.278;9.708;2023-03-23T13:20:23;12.90;86.40
48208;DHT22;33997;53.278;9.708;2023-03-23T13:23:15;13.00;85.80
48208;DHT22;33997;53.278;9.708;2023-03-23T13:25:48;13.10;86.20
48208;DHT22;33997;53.278;9.708;2023-03-23T13:28:17;13.50;85.20
48208;DHT22;33997;53.278;9.708;2023-03-23T13:31:20;13.90;83.70
48208;DHT22;33997;53.278;9.708;2023-03-23T13:33:52;13.70;83.60
48208;DHT22;33997;53.278;9.708;2023-03-23T13:36:30;13.40;84.00
48208;DHT22;33997;53.278;9.708;2023-03-23T13:38:58;13.30;85.10
48208;DHT22;33997;53.278;9.708;2023-03-23T13:41:25;13.00;85.70
48208;DHT22;33997;53.278;9.708;2023-03-23T13:43:51;12.90;86.00
48208;DHT22;33997;53.278;9.708;2023-03-23T13:46:27;13.60;84.50
48208;DHT22;33997;53.278;9.708;2023-03-23T13:52:00;14.50;81.30
48208;DHT22;33997;53.278;9.708;2023-03-23T13:54:38;14.90;80.00
48208;DHT22;33997;53.278;9.708;2023-03-23T13:57:33;15.60;78.50
48208;DHT22;33997;53.278;9.708;2023-03-23T14:00:12;15.30;75.90
48208;DHT22;33997;53.278;9.708;2023-03-23T14:02:40;16.00;75.30
48208;DHT22;33997;53.278;9.708;2023-03-23T14:10:41;16.60;73.90
48208;DHT22;33997;53.278;9.708;2023-03-23T14:13:18;15.60;75.70
48208;DHT22;33997;53.278;9.708;2023-03-23T14:15:59;15.20;77.50
48208;DHT22;33997;53.278;9.708;2023-03-23T14:18:37;15.00;77.80
48208;DHT22;33997;53.278;9.708;2023-03-23T14:21:06;14.80;77.50
48208;DHT22;33997;53.278;9.708;2023-03-23T14:23:35;15.00;78.00
48208;DHT22;33997;53.278;9.708;2023-03-23T14:26:11;14.90;78.30
48208;DHT22;33997;53.278;9.708;2023-03-23T14:28:43;14.80;76.70
48208;DHT22;33997;53.278;9.708;2023-03-23T14:31:18;14.20;79.30
48208;DHT22;33997;53.278;9.708;2023-03-23T14:33:45;14.00;80.60
48208;DHT22;33997;53.278;9.708;2023-03-23T14:36:10;13.70;80.60
48208;DHT22;33997;53.278;9.708;2023-03-23T14:38:36;13.50;80.90
48208;DHT22;33997;53.278;9.708;2023-03-23T14:41:03;13.10;81.40
48208;DHT22;33997;53.278;9.708;2023-03-23T14:43:30;13.00;82.50
48208;DHT22;33997;53.278;9.708;2023-03-23T14:45:59;12.90;83.80
48208;DHT22;33997;53.278;9.708;2023-03-23T14:48:26;12.70;84.90
48208;DHT22;33997;53.278;9.708;2023-03-23T14:50:59;12.60;86.40
48208;DHT22;33997;53.278;9.708;2023-03-23T14:53:38;12.20;86.80
48208;DHT22;33997;53.278;9.708;2023-03-23T14:56:19;11.90;88.90
48208;DHT22;33997;53.278;9.708;2023-03-23T14:58:50;11.70;88.80
48208;DHT22;33997;53.278;9.708;2023-03-23T15:01:27;11.50;89.40
48208;DHT22;33997;53.278;9.708;2023-03-23T15:04:07;11.20;88.40
48208;DHT22;33997;53.278;9.708;2023-03-23T15:06:36;11.00;88.30
48208;DHT22;33997;53.278;9.708;2023-03-23T15:09:05;10.70;88.80
48208;DHT22;33997;53.278;9.708;2023-03-23T15:11:34;10.30;88.90
48208;DHT22;33997;53.278;9.708;2023-03-23T15:14:18;10.00;91.60
48208;DHT22;33997;53.278;9.708;2023-03-23T15:16:47;9.80;91.60
48208;DHT22;33997;53.278;9.708;2023-03-23T15:19:20;9.60;92.10
48208;DHT22;33997;53.278;9.708;2023-03-23T15:21:48;9.60;93.20
48208;DHT22;33997;53.278;9.708;2023-03-23T15:24:33;10.20;93.30
48208;DHT22;33997;53.278;9.708;2023-03-23T15:27:27;11.30;90.00
48208;DHT22;33997;53.278;9.708;2023-03-23T15:29:56;12.20;88.90
48208;DHT22;33997;53.278;9.708;2023-03-23T15:32:31;12.40;85.60
48208;DHT22;33997;53.278;9.708;2023-03-23T15:35:09;13.00;85.50
48208;DHT22;33997;53.278;9.708;2023-03-23T15:37:43;13.50;85.50
48208;DHT22;33997;53.278;9.708;2023-03-23T15:40:17;12.00;85.30
48208;DHT22;33997;53.278;9.708;2023-03-23T15:42:44;11.70;87.20
48208;DHT22;33997;53.278;9.708;2023-03-23T15:50:17;13.40;83.10
48208;DHT22;33997;53.278;9.708;2023-03-23T15:52:43;13.80;81.80
48208;DHT22;33997;53.278;9.708;2023-03-23T15:55:35;13.90;79.40
48208;DHT22;33997;53.278;9.708;2023-03-23T15:58:08;14.20;78.70
48208;DHT22;33997;53.278;9.708;2023-03-23T16:00:34;13.50;78.80
48208;DHT22;33997;53.278;9.708;2023-03-23T16:03:03;13.50;79.80
48208;DHT22;33997;53.278;9.708;2023-03-23T16:05:29;13.20;81.80
48208;DHT22;33997;53.278;9.708;2023-03-23T16:07:55;13.30;82.80
48208;DHT22;33997;53.278;9.708;2023-03-23T16:10:22;14.00;82.80
48208;DHT22;33997;53.278;9.708;2023-03-23T16:12:48;13.30;80.80
48208;DHT22;33997;53.278;9.708;2023-03-23T16:15:14;12.60;82.80
48208;DHT22;33997;53.278;9.708;2023-03-23T16:17:41;13.60;83.40
48208;DHT22;33997;53.278;9.708;2023-03-23T16:20:14;14.00;82.10
48208;DHT22;33997;53.278;9.708;2023-03-23T16:22:40;14.60;80.80
48208;DHT22;33997;53.278;9.708;2023-03-23T16:25:06;13.70;81.30
48208;DHT22;33997;53.278;9.708;2023-03-23T16:27:32;13.30;82.20
48208;DHT22;33997;53.278;9.708;2023-03-23T16:29:57;12.60;83.70
48208;DHT22;33997;53.278;9.708;2023-03-23T16:32:25;12.30;84.90
48208;DHT22;33997;53.278;9.708;2023-03-23T16:34:51;12.10;86.00
48208;DHT22;33997;53.278;9.708;2023-03-23T16:37:16;12.10;86.70
48208;DHT22;33997;53.278;9.708;2023-03-23T16:39:42;12.10;86.30
48208;DHT22;33997;53.278;9.708;2023-03-23T16:42:08;12.10;87.30
48208;DHT22;33997;53.278;9.708;2023-03-23T16:44:33;12.00;86.90
48208;DHT22;33997;53.278;9.708;2023-03-23T16:46:59;11.70;87.20
48208;DHT22;33997;53.278;9.708;2023-03-23T16:49:24;11.50;87.60
48208;DHT22;33997;53.278;9.708;2023-03-23T16:51:50;11.40;88.50
48208;DHT22;33997;53.278;9.708;2023-03-23T16:54:15;11.20;88.60
48208;DHT22;33997;53.278;9.708;2023-03-23T16:56:41;11.40;89.00
48208;DHT22;33997;53.278;9.708;2023-03-23T16:59:11;11.40;88.80
48208;DHT22;33997;53.278;9.708;2023-03-23T17:01:37;11.20;89.00
48208;DHT22;33997;53.278;9.708;2023-03-23T17:04:03;11.10;89.10
48208;DHT22;33997;53.278;9.708;2023-03-23T17:06:29;11.10;89.40
48208;DHT22;33997;53.278;9.708;2023-03-23T17:08:54;11.00;89.70
48208;DHT22;33997;53.278;9.708;2023-03-23T17:11:20;11.00;89.90
48208;DHT22;33997;53.278;9.708;2023-03-23T17:13:45;10.90;89.90
48208;DHT22;33997;53.278;9.708;2023-03-23T17:16:11;10.80;90.20
48208;DHT22;33997;53.278;9.708;2023-03-23T17:18:36;10.70;90.40